createdAt,value
2023-02-18T00:00:33.057Z,21.1
2023-02-18T00:15:32.416Z,21.1
2023-02-18T00:30:32.365Z,21.1
2023-02-18T00:45:32.380Z,21.1
2023-02-18T01:00:31.997Z,21.2
2023-02-18T01:15:32.089Z,21.2
2023-02-18T01:30:32.456Z,21.2
2023-02-18T01:45:31.829Z,21.2
2023-02-18T02:00:32.111Z,21.2
2023-02-18T02:15:32.322Z,21.2
2023-02-18T02:30:32.773Z,21.2
2023-02-18T02:45:31.800Z,21.2
2023-02-18T03:00:32.774Z,21.3
2023-02-18T03:15:32.119Z,21.3
2023-02-18T03:30:32.542Z,21.3
2023-02-18T03:45:32.358Z,21.3
2023-02-18T04:00:32.978Z,21.4
2023-02-18T04:15:32.640Z,21.4
2023-02-18T04:30:32.038Z,21.4
2023-02-18T04:45:32.005Z,21.4
2023-02-18T05:00:32.239Z,21.4
2023-02-18T05:15:32.792Z,21.4
2023-02-18T05:30:33.081Z,21.5
2023-02-18T05:45:32.472Z,21.5
2023-02-18T06:00:32.544Z,21.5
2023-02-18T06:15:31.957Z,21.5
2023-02-18T06:30:32.909Z,21.5
2023-02-18T06:45:32.945Z,21.5
2023-02-18T07:00:38.625Z,21.5
2023-02-18T07:15:32.477Z,21.5
2023-02-18T07:30:37.139Z,21.5
2023-02-18T07:45:32.729Z,21.6
2023-02-18T08:00:36.829Z,21.6
2023-02-18T08:15:32.487Z,21.6
2023-02-18T08:30:34.006Z,21.6
2023-02-18T08:45:32.535Z,21.6
2023-02-18T09:00:36.789Z,21.6
2023-02-18T09:15:32.014Z,21.7
2023-02-18T09:30:34.506Z,21.7
2023-02-18T09:45:31.900Z,21.8
2023-02-18T10:00:35.541Z,21.8
2023-02-18T10:15:32.368Z,21.8
2023-02-18T10:30:35.067Z,21.8
2023-02-18T10:45:32.868Z,21.9
2023-02-18T11:00:36.106Z,21.9
2023-02-18T11:15:32.274Z,21.9
2023-02-18T11:30:33.381Z,22.0
2023-02-18T11:45:32.846Z,22
2023-02-18T12:00:36.090Z,22
2023-02-18T12:15:32.147Z,22.1
2023-02-18T12:30:33.284Z,22.1
2023-02-18T12:45:32.189Z,22.1
2023-02-18T13:00:37.859Z,22.1
2023-02-18T13:15:32.789Z,22.2
2023-02-18T13:30:33.310Z,22.2
2023-02-18T13:45:31.956Z,22.2
2023-02-18T14:00:35.669Z,22.2
2023-02-18T14:15:32.538Z,22.2
2023-02-18T14:30:34.711Z,22.2
2023-02-18T14:45:32.410Z,22.2
2023-02-18T15:00:34.343Z,22.2
2023-02-18T15:15:32.675Z,22.2
2023-02-18T15:30:34.244Z,22.2
2023-02-18T15:45:32.323Z,22.2
2023-02-18T16:00:35.900Z,22.2
2023-02-18T16:15:32.195Z,22.2
2023-02-18T16:30:33.830Z,22.2
2023-02-18T16:45:32.054Z,22.1
2023-02-18T17:00:36.548Z,22.1
2023-02-18T17:15:32.738Z,22.1
2023-02-18T17:30:34.648Z,22.1
2023-02-18T17:45:32.529Z,22.0
2023-02-18T18:00:35.891Z,22
2023-02-18T18:15:33.158Z,22
2023-02-18T18:30:33.113Z,22
2023-02-18T18:45:32.686Z,22
2023-02-18T19:00:32.920Z,22
2023-02-18T19:15:32.896Z,22
2023-02-18T19:30:32.539Z,21.9
2023-02-18T19:45:32.624Z,21.9
2023-02-18T20:00:34.218Z,21.9
2023-02-18T20:15:32.298Z,21.9
2023-02-18T20:30:33.058Z,21.9
2023-02-18T20:45:32.669Z,21.9
2023-02-18T21:00:33.611Z,21.9
2023-02-18T21:15:32.774Z,21.9
2023-02-18T21:30:32.199Z,21.9
2023-02-18T21:45:32.079Z,21.9
2023-02-18T22:00:32.652Z,21.9
2023-02-18T22:15:32.893Z,21.9
2023-02-18T22:30:32.723Z,21.9
2023-02-18T22:45:32.535Z,21.8
2023-02-18T23:00:32.419Z,21.8
2023-02-18T23:15:32.544Z,21.8
2023-02-18T23:30:31.954Z,21.9
2023-02-18T23:45:32.265Z,21.9
